sensor_id;sensor_type;location;lat;lon;timestamp;P1;durP1;ratioP1;P2;durP2;ratioP2
67108;SDS011;54027;50.786;7.058;2023-08-17T00:01:38;20.35;;;14.50;;
67108;SDS011;54027;50.786;7.058;2023-08-17T00:04:03;15.77;;;14.05;;
67108;SDS011;54027;50.786;7.058;2023-08-17T00:06:29;20.08;;;13.07;;
67108;SDS011;54027;50.786;7.058;2023-08-17T00:08:54;15.40;;;13.13;;
67108;SDS011;54027;50.786;7.058;2023-08-17T00:11:20;15.27;;;11.18;;
67108;SDS011;54027;50.786;7.058;2023-08-17T00:13:45;15.65;;;12.85;;
67108;SDS011;54027;50.786;7.058;2023-08-17T00:16:11;16.45;;;12.98;;
67108;SDS011;54027;50.786;7.058;2023-08-17T00:18:36;12.98;;;11.43;;
67108;SDS011;54027;50.786;7.058;2023-08-17T00:21:01;15.25;;;12.45;;
67108;SDS011;54027;50.786;7.058;2023-08-17T00:23:28;22.10;;;12.88;;
67108;SDS011;54027;50.786;7.058;2023-08-17T00:25:54;19.95;;;13.25;;
67108;SDS011;54027;50.786;7.058;2023-08-17T00:28:19;18.80;;;14.00;;
67108;SDS011;54027;50.786;7.058;2023-08-17T00:30:44;18.60;;;13.73;;
67108;SDS011;54027;50.786;7.058;2023-08-17T00:33:10;16.20;;;13.75;;
67108;SDS011;54027;50.786;7.058;2023-08-17T00:35:35;18.90;;;13.55;;
67108;SDS011;54027;50.786;7.058;2023-08-17T00:38:01;18.25;;;14.18;;
67108;SDS011;54027;50.786;7.058;2023-08-17T00:40:26;13.98;;;11.95;;
67108;SDS011;54027;50.786;7.058;2023-08-17T00:42:51;19.30;;;12.73;;
67108;SDS011;54027;50.786;7.058;2023-08-17T00:45:17;17.02;;;13.05;;
67108;SDS011;54027;50.786;7.058;2023-08-17T00:47:43;17.88;;;13.25;;
67108;SDS011;54027;50.786;7.058;2023-08-17T00:50:10;21.80;;;14.20;;
67108;SDS011;54027;50.786;7.058;2023-08-17T00:52:36;13.15;;;10.50;;
67108;SDS011;54027;50.786;7.058;2023-08-17T00:55:02;17.95;;;12.25;;
67108;SDS011;54027;50.786;7.058;2023-08-17T00:57:29;21.45;;;14.55;;
67108;SDS011;54027;50.786;7.058;2023-08-17T00:59:55;20.75;;;13.68;;
67108;SDS011;54027;50.786;7.058;2023-08-17T01:02:21;18.83;;;12.95;;
67108;SDS011;54027;50.786;7.058;2023-08-17T01:04:46;14.07;;;11.13;;
67108;SDS011;54027;50.786;7.058;2023-08-17T01:07:12;22.08;;;15.20;;
67108;SDS011;54027;50.786;7.058;2023-08-17T01:09:37;21.02;;;14.48;;
67108;SDS011;54027;50.786;7.058;2023-08-17T01:15:18;18.45;;;13.38;;
67108;SDS011;54027;50.786;7.058;2023-08-17T01:17:56;14.50;;;11.25;;
67108;SDS011;54027;50.786;7.058;2023-08-17T01:20:35;16.10;;;12.13;;
67108;SDS011;54027;50.786;7.058;2023-08-17T01:23:05;13.52;;;10.90;;
67108;SDS011;54027;50.786;7.058;2023-08-17T01:25:30;12.55;;;11.10;;
67108;SDS011;54027;50.786;7.058;2023-08-17T01:28:01;15.43;;;11.88;;
67108;SDS011;54027;50.786;7.058;2023-08-17T01:30:27;15.55;;;12.00;;
67108;SDS011;54027;50.786;7.058;2023-08-17T01:37:53;15.20;;;11.27;;
67108;SDS011;54027;50.786;7.058;2023-08-17T01:40:21;16.10;;;12.20;;
67108;SDS011;54027;50.786;7.058;2023-08-17T01:42:48;19.45;;;13.52;;
67108;SDS011;54027;50.786;7.058;2023-08-17T01:45:15;16.67;;;11.43;;
67108;SDS011;54027;50.786;7.058;2023-08-17T01:47:41;14.48;;;10.70;;
67108;SDS011;54027;50.786;7.058;2023-08-17T01:50:06;14.02;;;10.60;;
67108;SDS011;54027;50.786;7.058;2023-08-17T01:52:32;15.88;;;10.85;;
67108;SDS011;54027;50.786;7.058;2023-08-17T01:54:57;14.32;;;10.60;;
67108;SDS011;54027;50.786;7.058;2023-08-17T01:57:23;13.80;;;10.02;;
67108;SDS011;54027;50.786;7.058;2023-08-17T01:59:48;15.75;;;10.43;;
67108;SDS011;54027;50.786;7.058;2023-08-17T02:02:13;18.65;;;8.93;;
67108;SDS011;54027;50.786;7.058;2023-08-17T02:04:39;14.88;;;9.38;;
67108;SDS011;54027;50.786;7.058;2023-08-17T02:07:05;10.63;;;9.32;;
67108;SDS011;54027;50.786;7.058;2023-08-17T02:09:30;14.75;;;9.73;;
67108;SDS011;54027;50.786;7.058;2023-08-17T02:11:56;11.85;;;8.95;;
67108;SDS011;54027;50.786;7.058;2023-08-17T02:14:21;17.42;;;9.95;;
67108;SDS011;54027;50.786;7.058;2023-08-17T02:16:47;15.20;;;9.45;;
67108;SDS011;54027;50.786;7.058;2023-08-17T02:19:12;14.18;;;8.35;;
67108;SDS011;54027;50.786;7.058;2023-08-17T02:21:38;13.10;;;9.55;;
67108;SDS011;54027;50.786;7.058;2023-08-17T02:24:03;13.27;;;10.63;;
67108;SDS011;54027;50.786;7.058;2023-08-17T02:26:29;12.90;;;9.93;;
67108;SDS011;54027;50.786;7.058;2023-08-17T02:28:55;18.25;;;10.77;;
67108;SDS011;54027;50.786;7.058;2023-08-17T02:31:20;16.35;;;10.68;;
67108;SDS011;54027;50.786;7.058;2023-08-17T02:33:46;12.82;;;9.57;;
67108;SDS011;54027;50.786;7.058;2023-08-17T02:36:11;12.70;;;10.00;;
67108;SDS011;54027;50.786;7.058;2023-08-17T02:38:37;14.73;;;10.32;;
67108;SDS011;54027;50.786;7.058;2023-08-17T02:41:02;15.60;;;11.07;;
67108;SDS011;54027;50.786;7.058;2023-08-17T02:43:27;13.80;;;11.00;;
67108;SDS011;54027;50.786;7.058;2023-08-17T02:45:53;17.30;;;11.70;;
67108;SDS011;54027;50.786;7.058;2023-08-17T02:48:18;14.18;;;11.55;;
67108;SDS011;54027;50.786;7.058;2023-08-17T02:50:44;18.27;;;12.05;;
67108;SDS011;54027;50.786;7.058;2023-08-17T02:53:09;13.55;;;11.10;;
67108;SDS011;54027;50.786;7.058;2023-08-17T02:55:35;18.65;;;14.25;;
67108;SDS011;54027;50.786;7.058;2023-08-17T02:58:00;16.33;;;12.57;;
67108;SDS011;54027;50.786;7.058;2023-08-17T03:00:26;24.55;;;15.15;;
67108;SDS011;54027;50.786;7.058;2023-08-17T03:02:51;20.58;;;14.85;;
67108;SDS011;54027;50.786;7.058;2023-08-17T03:05:17;20.52;;;14.32;;
67108;SDS011;54027;50.786;7.058;2023-08-17T03:07:43;20.92;;;14.63;;
67108;SDS011;54027;50.786;7.058;2023-08-17T03:10:08;18.55;;;13.77;;
67108;SDS011;54027;50.786;7.058;2023-08-17T03:12:34;19.98;;;15.45;;
67108;SDS011;54027;50.786;7.058;2023-08-17T03:14:59;21.23;;;14.30;;
67108;SDS011;54027;50.786;7.058;2023-08-17T03:17:25;18.83;;;13.85;;
67108;SDS011;54027;50.786;7.058;2023-08-17T03:19:50;18.75;;;14.98;;
67108;SDS011;54027;50.786;7.058;2023-08-17T03:22:16;21.90;;;14.07;;
67108;SDS011;54027;50.786;7.058;2023-08-17T03:24:41;20.23;;;14.50;;
67108;SDS011;54027;50.786;7.058;2023-08-17T03:27:06;20.02;;;14.63;;
67108;SDS011;54027;50.786;7.058;2023-08-17T03:29:32;20.15;;;12.98;;
67108;SDS011;54027;50.786;7.058;2023-08-17T03:31:57;17.02;;;12.68;;
67108;SDS011;54027;50.786;7.058;2023-08-17T03:34:22;14.75;;;11.20;;
67108;SDS011;54027;50.786;7.058;2023-08-17T03:36:48;17.15;;;11.48;;
67108;SDS011;54027;50.786;7.058;2023-08-17T03:39:15;14.07;;;10.13;;
67108;SDS011;54027;50.786;7.058;2023-08-17T03:41:41;16.25;;;10.85;;
67108;SDS011;54027;50.786;7.058;2023-08-17T03:44:06;11.23;;;10.00;;
67108;SDS011;54027;50.786;7.058;2023-08-17T03:46:32;14.00;;;10.10;;
67108;SDS011;54027;50.786;7.058;2023-08-17T03:48:57;17.30;;;11.27;;
67108;SDS011;54027;50.786;7.058;2023-08-17T03:51:23;15.57;;;11.27;;
67108;SDS011;54027;50.786;7.058;2023-08-17T03:53:48;19.55;;;12.65;;
67108;SDS011;54027;50.786;7.058;2023-08-17T03:56:13;13.52;;;10.63;;
67108;SDS011;54027;50.786;7.058;2023-08-17T03:58:39;14.38;;;11.48;;
67108;SDS011;54027;50.786;7.058;2023-08-17T04:01:06;14.38;;;12.13;;
67108;SDS011;54027;50.786;7.058;2023-08-17T04:03:31;19.58;;;11.88;;
67108;SDS011;54027;50.786;7.058;2023-08-17T04:05:57;12.13;;;10.15;;
67108;SDS011;54027;50.786;7.058;2023-08-17T04:08:22;14.68;;;12.18;;
67108;SDS011;54027;50.786;7.058;2023-08-17T04:10:47;17.45;;;12.55;;
67108;SDS011;54027;50.786;7.058;2023-08-17T04:13:13;15.02;;;10.93;;
67108;SDS011;54027;50.786;7.058;2023-08-17T04:15:38;15.57;;;11.43;;
67108;SDS011;54027;50.786;7.058;2023-08-17T04:18:03;13.45;;;9.77;;
67108;SDS011;54027;50.786;7.058;2023-08-17T04:20:29;9.57;;;8.45;;
67108;SDS011;54027;50.786;7.058;2023-08-17T04:22:54;13.45;;;9.43;;
67108;SDS011;54027;50.786;7.058;2023-08-17T04:25:19;14.13;;;9.20;;
67108;SDS011;54027;50.786;7.058;2023-08-17T04:27:46;11.50;;;8.82;;
67108;SDS011;54027;50.786;7.058;2023-08-17T04:30:11;11.48;;;9.55;;
67108;SDS011;54027;50.786;7.058;2023-08-17T04:32:37;11.43;;;8.95;;
67108;SDS011;54027;50.786;7.058;2023-08-17T04:35:02;14.00;;;8.88;;
67108;SDS011;54027;50.786;7.058;2023-08-17T04:37:28;12.27;;;8.35;;
67108;SDS011;54027;50.786;7.058;2023-08-17T04:39:53;12.88;;;8.50;;
67108;SDS011;54027;50.786;7.058;2023-08-17T04:42:19;11.82;;;9.13;;
67108;SDS011;54027;50.786;7.058;2023-08-17T04:44:45;14.15;;;9.15;;
67108;SDS011;54027;50.786;7.058;2023-08-17T04:47:10;11.88;;;9.50;;
67108;SDS011;54027;50.786;7.058;2023-08-17T04:49:36;9.32;;;8.38;;
67108;SDS011;54027;50.786;7.058;2023-08-17T04:52:01;11.50;;;9.30;;
67108;SDS011;54027;50.786;7.058;2023-08-17T04:54:27;12.48;;;9.23;;
67108;SDS011;54027;50.786;7.058;2023-08-17T04:56:53;9.68;;;8.18;;
67108;SDS011;54027;50.786;7.058;2023-08-17T04:59:18;10.77;;;8.30;;
67108;SDS011;54027;50.786;7.058;2023-08-17T05:01:43;11.95;;;7.80;;
67108;SDS011;54027;50.786;7.058;2023-08-17T05:04:09;11.40;;;7.68;;
67108;SDS011;54027;50.786;7.058;2023-08-17T05:06:34;8.15;;;7.22;;
67108;SDS011;54027;50.786;7.058;2023-08-17T05:08:59;11.35;;;8.43;;
67108;SDS011;54027;50.786;7.058;2023-08-17T05:11:25;10.77;;;8.43;;
67108;SDS011;54027;50.786;7.058;2023-08-17T05:13:50;11.05;;;8.70;;
67108;SDS011;54027;50.786;7.058;2023-08-17T05:16:15;12.98;;;9.32;;
67108;SDS011;54027;50.786;7.058;2023-08-17T05:18:41;11.82;;;9.30;;
67108;SDS011;54027;50.786;7.058;2023-08-17T05:21:06;13.02;;;8.93;;
67108;SDS011;54027;50.786;7.058;2023-08-17T05:23:32;10.93;;;9.23;;
67108;SDS011;54027;50.786;7.058;2023-08-17T05:25:57;14.75;;;8.88;;
67108;SDS011;54027;50.786;7.058;2023-08-17T05:28:23;9.02;;;8.13;;
67108;SDS011;54027;50.786;7.058;2023-08-17T05:30:48;14.40;;;8.32;;
67108;SDS011;54027;50.786;7.058;2023-08-17T05:33:14;11.10;;;8.23;;
67108;SDS011;54027;50.786;7.058;2023-08-17T05:35:39;12.00;;;8.73;;
67108;SDS011;54027;50.786;7.058;2023-08-17T05:38:05;12.25;;;8.18;;
67108;SDS011;54027;50.786;7.058;2023-08-17T05:40:30;11.18;;;8.07;;
67108;SDS011;54027;50.786;7.058;2023-08-17T05:42:56;10.85;;;8.23;;
67108;SDS011;54027;50.786;7.058;2023-08-17T05:45:22;15.00;;;8.77;;
67108;SDS011;54027;50.786;7.058;2023-08-17T05:47:47;14.05;;;9.38;;
67108;SDS011;54027;50.786;7.058;2023-08-17T05:50:12;9.68;;;7.28;;
67108;SDS011;54027;50.786;7.058;2023-08-17T05:52:40;11.30;;;8.45;;
67108;SDS011;54027;50.786;7.058;2023-08-17T05:55:06;9.02;;;8.20;;
67108;SDS011;54027;50.786;7.058;2023-08-17T05:57:32;11.70;;;9.23;;
67108;SDS011;54027;50.786;7.058;2023-08-17T05:59:57;11.90;;;7.88;;
67108;SDS011;54027;50.786;7.058;2023-08-17T06:02:23;11.30;;;9.10;;
67108;SDS011;54027;50.786;7.058;2023-08-17T06:04:48;16.42;;;9.25;;
67108;SDS011;54027;50.786;7.058;2023-08-17T06:07:13;10.60;;;8.55;;
67108;SDS011;54027;50.786;7.058;2023-08-17T06:09:39;10.95;;;8.55;;
67108;SDS011;54027;50.786;7.058;2023-08-17T06:12:04;11.30;;;8.40;;
67108;SDS011;54027;50.786;7.058;2023-08-17T06:14:30;11.43;;;9.10;;
67108;SDS011;54027;50.786;7.058;2023-08-17T06:16:57;12.98;;;8.98;;
67108;SDS011;54027;50.786;7.058;2023-08-17T06:19:23;13.27;;;9.68;;
67108;SDS011;54027;50.786;7.058;2023-08-17T06:21:48;12.20;;;10.30;;
67108;SDS011;54027;50.786;7.058;2023-08-17T06:24:14;14.30;;;10.02;;
67108;SDS011;54027;50.786;7.058;2023-08-17T06:26:39;11.85;;;9.57;;
67108;SDS011;54027;50.786;7.058;2023-08-17T06:29:04;18.02;;;9.63;;
67108;SDS011;54027;50.786;7.058;2023-08-17T06:31:30;15.70;;;10.05;;
67108;SDS011;54027;50.786;7.058;2023-08-17T06:33:55;16.75;;;10.23;;
67108;SDS011;54027;50.786;7.058;2023-08-17T06:36:21;13.20;;;9.55;;
67108;SDS011;54027;50.786;7.058;2023-08-17T06:38:46;10.20;;;8.63;;
67108;SDS011;54027;50.786;7.058;2023-08-17T06:41:12;12.82;;;9.70;;
67108;SDS011;54027;50.786;7.058;2023-08-17T06:43:38;14.73;;;10.18;;
67108;SDS011;54027;50.786;7.058;2023-08-17T06:46:03;15.35;;;9.98;;
67108;SDS011;54027;50.786;7.058;2023-08-17T06:48:29;14.73;;;9.90;;
67108;SDS011;54027;50.786;7.058;2023-08-17T06:50:54;13.70;;;10.65;;
67108;SDS011;54027;50.786;7.058;2023-08-17T06:53:19;20.80;;;10.85;;
67108;SDS011;54027;50.786;7.058;2023-08-17T06:55:45;15.70;;;9.48;;
67108;SDS011;54027;50.786;7.058;2023-08-17T06:58:10;22.25;;;12.18;;
67108;SDS011;54027;50.786;7.058;2023-08-17T07:00:36;14.95;;;10.82;;
67108;SDS011;54027;50.786;7.058;2023-08-17T07:03:01;18.98;;;11.90;;
67108;SDS011;54027;50.786;7.058;2023-08-17T07:05:27;14.90;;;10.43;;
67108;SDS011;54027;50.786;7.058;2023-08-17T07:07:52;22.77;;;12.35;;
67108;SDS011;54027;50.786;7.058;2023-08-17T07:10:18;26.95;;;13.80;;
67108;SDS011;54027;50.786;7.058;2023-08-17T07:12:44;28.95;;;13.45;;
67108;SDS011;54027;50.786;7.058;2023-08-17T07:15:09;22.58;;;13.07;;
67108;SDS011;54027;50.786;7.058;2023-08-17T07:17:35;29.05;;;13.18;;
67108;SDS011;54027;50.786;7.058;2023-08-17T07:20:01;24.88;;;14.18;;
67108;SDS011;54027;50.786;7.058;2023-08-17T07:22:27;23.23;;;13.93;;
67108;SDS011;54027;50.786;7.058;2023-08-17T07:24:52;25.08;;;13.80;;
67108;SDS011;54027;50.786;7.058;2023-08-17T07:27:18;21.15;;;13.80;;
67108;SDS011;54027;50.786;7.058;2023-08-17T07:29:43;26.52;;;13.88;;
67108;SDS011;54027;50.786;7.058;2023-08-17T07:32:09;31.83;;;14.77;;
67108;SDS011;54027;50.786;7.058;2023-08-17T07:34:35;29.75;;;14.45;;
67108;SDS011;54027;50.786;7.058;2023-08-17T07:37:01;32.83;;;15.70;;
67108;SDS011;54027;50.786;7.058;2023-08-17T07:39:27;28.42;;;15.15;;
67108;SDS011;54027;50.786;7.058;2023-08-17T07:41:52;30.27;;;16.38;;
67108;SDS011;54027;50.786;7.058;2023-08-17T07:44:17;31.58;;;15.23;;
67108;SDS011;54027;50.786;7.058;2023-08-17T07:46:43;33.47;;;15.52;;
67108;SDS011;54027;50.786;7.058;2023-08-17T07:49:08;31.55;;;15.93;;
67108;SDS011;54027;50.786;7.058;2023-08-17T07:51:34;25.88;;;14.00;;
67108;SDS011;54027;50.786;7.058;2023-08-17T07:54:00;27.40;;;15.52;;
67108;SDS011;54027;50.786;7.058;2023-08-17T07:56:26;29.63;;;16.58;;
67108;SDS011;54027;50.786;7.058;2023-08-17T07:58:53;30.83;;;17.27;;
67108;SDS011;54027;50.786;7.058;2023-08-17T08:01:19;29.30;;;15.73;;
67108;SDS011;54027;50.786;7.058;2023-08-17T08:03:44;28.42;;;17.13;;
67108;SDS011;54027;50.786;7.058;2023-08-17T08:06:10;24.23;;;14.02;;
67108;SDS011;54027;50.786;7.058;2023-08-17T08:08:35;21.63;;;13.23;;
67108;SDS011;54027;50.786;7.058;2023-08-17T08:11:00;30.02;;;17.25;;
67108;SDS011;54027;50.786;7.058;2023-08-17T08:13:26;26.98;;;15.65;;
67108;SDS011;54027;50.786;7.058;2023-08-17T08:15:51;20.92;;;12.80;;
67108;SDS011;54027;50.786;7.058;2023-08-17T08:18:16;27.15;;;14.52;;
67108;SDS011;54027;50.786;7.058;2023-08-17T08:20:42;21.17;;;15.35;;
67108;SDS011;54027;50.786;7.058;2023-08-17T08:23:07;20.27;;;15.00;;
67108;SDS011;54027;50.786;7.058;2023-08-17T08:25:32;24.73;;;16.52;;
67108;SDS011;54027;50.786;7.058;2023-08-17T08:27:58;25.55;;;16.15;;
67108;SDS011;54027;50.786;7.058;2023-08-17T08:30:23;25.20;;;20.75;;
67108;SDS011;54027;50.786;7.058;2023-08-17T08:32:49;23.20;;;16.73;;
67108;SDS011;54027;50.786;7.058;2023-08-17T08:35:15;20.80;;;17.08;;
67108;SDS011;54027;50.786;7.058;2023-08-17T08:37:40;31.63;;;21.60;;
67108;SDS011;54027;50.786;7.058;2023-08-17T08:40:06;27.15;;;18.90;;
67108;SDS011;54027;50.786;7.058;2023-08-17T08:42:36;21.33;;;16.55;;
67108;SDS011;54027;50.786;7.058;2023-08-17T08:45:01;19.73;;;15.43;;
67108;SDS011;54027;50.786;7.058;2023-08-17T08:47:27;27.50;;;20.40;;
67108;SDS011;54027;50.786;7.058;2023-08-17T08:50:00;26.40;;;22.17;;
67108;SDS011;54027;50.786;7.058;2023-08-17T08:52:38;31.67;;;20.63;;
67108;SDS011;54027;50.786;7.058;2023-08-17T08:55:15;28.15;;;20.33;;
67108;SDS011;54027;50.786;7.058;2023-08-17T08:57:43;36.17;;;24.80;;
67108;SDS011;54027;50.786;7.058;2023-08-17T09:00:11;35.67;;;24.50;;
67108;SDS011;54027;50.786;7.058;2023-08-17T09:02:37;38.15;;;25.05;;
67108;SDS011;54027;50.786;7.058;2023-08-17T09:05:04;33.40;;;22.95;;
67108;SDS011;54027;50.786;7.058;2023-08-17T09:07:31;36.33;;;22.52;;
67108;SDS011;54027;50.786;7.058;2023-08-17T09:09:57;30.58;;;20.98;;
67108;SDS011;54027;50.786;7.058;2023-08-17T09:12:23;31.00;;;22.92;;
67108;SDS011;54027;50.786;7.058;2023-08-17T09:14:49;32.53;;;21.52;;
67108;SDS011;54027;50.786;7.058;2023-08-17T09:17:22;30.00;;;21.52;;
67108;SDS011;54027;50.786;7.058;2023-08-17T09:19:51;29.27;;;19.30;;
67108;SDS011;54027;50.786;7.058;2023-08-17T09:22:23;33.67;;;22.17;;
67108;SDS011;54027;50.786;7.058;2023-08-17T09:24:50;33.60;;;20.50;;
67108;SDS011;54027;50.786;7.058;2023-08-17T09:27:16;34.65;;;23.17;;
67108;SDS011;54027;50.786;7.058;2023-08-17T09:29:44;35.83;;;23.40;;
67108;SDS011;54027;50.786;7.058;2023-08-17T09:32:14;32.13;;;22.17;;
67108;SDS011;54027;50.786;7.058;2023-08-17T09:34:43;35.38;;;22.42;;
67108;SDS011;54027;50.786;7.058;2023-08-17T09:37:11;35.65;;;22.65;;
67108;SDS011;54027;50.786;7.058;2023-08-17T09:39:37;40.92;;;24.38;;
67108;SDS011;54027;50.786;7.058;2023-08-17T09:42:02;41.72;;;24.08;;
67108;SDS011;54027;50.786;7.058;2023-08-17T09:44:28;37.17;;;23.85;;
67108;SDS011;54027;50.786;7.058;2023-08-17T09:46:56;38.65;;;23.77;;
67108;SDS011;54027;50.786;7.058;2023-08-17T09:49:23;40.63;;;27.38;;
67108;SDS011;54027;50.786;7.058;2023-08-17T09:51:49;42.08;;;27.45;;
67108;SDS011;54027;50.786;7.058;2023-08-17T09:54:20;47.72;;;30.52;;
67108;SDS011;54027;50.786;7.058;2023-08-17T09:56:48;43.90;;;30.85;;
67108;SDS011;54027;50.786;7.058;2023-08-17T09:59:18;45.65;;;30.83;;
67108;SDS011;54027;50.786;7.058;2023-08-17T10:01:43;47.38;;;32.20;;
67108;SDS011;54027;50.786;7.058;2023-08-17T10:04:13;48.75;;;32.55;;
67108;SDS011;54027;50.786;7.058;2023-08-17T10:06:46;46.58;;;33.03;;
67108;SDS011;54027;50.786;7.058;2023-08-17T10:09:16;55.40;;;37.95;;
67108;SDS011;54027;50.786;7.058;2023-08-17T10:11:47;51.30;;;35.88;;
67108;SDS011;54027;50.786;7.058;2023-08-17T10:14:18;49.28;;;32.25;;
67108;SDS011;54027;50.786;7.058;2023-08-17T10:17:03;43.97;;;31.85;;
67108;SDS011;54027;50.786;7.058;2023-08-17T10:19:50;42.95;;;31.23;;
67108;SDS011;54027;50.786;7.058;2023-08-17T10:22:20;36.70;;;26.35;;
67108;SDS011;54027;50.786;7.058;2023-08-17T10:24:47;42.80;;;27.83;;
67108;SDS011;54027;50.786;7.058;2023-08-17T10:27:14;44.30;;;29.25;;
67108;SDS011;54027;50.786;7.058;2023-08-17T10:29:41;36.20;;;27.08;;
67108;SDS011;54027;50.786;7.058;2023-08-17T10:32:08;37.55;;;26.05;;
67108;SDS011;54027;50.786;7.058;2023-08-17T10:34:34;30.85;;;22.00;;
67108;SDS011;54027;50.786;7.058;2023-08-17T10:37:00;37.95;;;26.42;;
67108;SDS011;54027;50.786;7.058;2023-08-17T10:39:27;35.38;;;24.08;;
67108;SDS011;54027;50.786;7.058;2023-08-17T10:41:54;32.80;;;22.35;;
67108;SDS011;54027;50.786;7.058;2023-08-17T10:47:19;35.10;;;24.20;;
67108;SDS011;54027;50.786;7.058;2023-08-17T10:49:45;30.73;;;21.83;;
67108;SDS011;54027;50.786;7.058;2023-08-17T10:52:10;34.05;;;22.02;;
67108;SDS011;54027;50.786;7.058;2023-08-17T10:54:37;24.85;;;17.95;;
67108;SDS011;54027;50.786;7.058;2023-08-17T11:05:40;19.92;;;15.55;;
67108;SDS011;54027;50.786;7.058;2023-08-17T11:08:33;20.98;;;15.50;;
67108;SDS011;54027;50.786;7.058;2023-08-17T11:13:41;19.13;;;13.70;;
67108;SDS011;54027;50.786;7.058;2023-08-17T11:16:09;18.85;;;15.20;;
67108;SDS011;54027;50.786;7.058;2023-08-17T11:18:36;22.63;;;15.23;;
67108;SDS011;54027;50.786;7.058;2023-08-17T11:21:02;21.50;;;15.63;;
67108;SDS011;54027;50.786;7.058;2023-08-17T11:23:29;22.65;;;15.10;;
67108;SDS011;54027;50.786;7.058;2023-08-17T11:25:56;21.77;;;15.70;;
67108;SDS011;54027;50.786;7.058;2023-08-17T11:28:22;22.10;;;15.50;;
67108;SDS011;54027;50.786;7.058;2023-08-17T11:30:58;23.77;;;16.63;;
67108;SDS011;54027;50.786;7.058;2023-08-17T11:33:27;19.95;;;16.27;;
67108;SDS011;54027;50.786;7.058;2023-08-17T11:35:57;22.02;;;16.13;;
67108;SDS011;54027;50.786;7.058;2023-08-17T11:38:23;24.00;;;17.33;;
67108;SDS011;54027;50.786;7.058;2023-08-17T11:40:49;20.73;;;16.48;;
67108;SDS011;54027;50.786;7.058;2023-08-17T11:43:15;20.73;;;16.63;;
67108;SDS011;54027;50.786;7.058;2023-08-17T11:45:41;19.00;;;15.77;;
67108;SDS011;54027;50.786;7.058;2023-08-17T11:48:06;20.65;;;14.90;;
67108;SDS011;54027;50.786;7.058;2023-08-17T11:50:32;21.75;;;17.30;;
67108;SDS011;54027;50.786;7.058;2023-08-17T11:53:00;20.73;;;15.70;;
67108;SDS011;54027;50.786;7.058;2023-08-17T11:55:26;19.98;;;13.40;;
67108;SDS011;54027;50.786;7.058;2023-08-17T11:57:52;21.58;;;14.10;;
67108;SDS011;54027;50.786;7.058;2023-08-17T12:00:18;18.73;;;14.40;;
67108;SDS011;54027;50.786;7.058;2023-08-17T12:02:49;18.67;;;13.48;;
67108;SDS011;54027;50.786;7.058;2023-08-17T12:05:24;18.33;;;13.02;;
67108;SDS011;54027;50.786;7.058;2023-08-17T12:07:54;19.45;;;13.85;;
67108;SDS011;54027;50.786;7.058;2023-08-17T12:10:20;24.58;;;18.38;;
67108;SDS011;54027;50.786;7.058;2023-08-17T12:12:47;24.70;;;17.80;;
67108;SDS011;54027;50.786;7.058;2023-08-17T12:15:13;26.08;;;18.23;;
67108;SDS011;54027;50.786;7.058;2023-08-17T12:17:43;21.70;;;18.05;;
67108;SDS011;54027;50.786;7.058;2023-08-17T12:20:15;23.15;;;18.15;;
67108;SDS011;54027;50.786;7.058;2023-08-17T12:22:44;23.10;;;17.02;;
67108;SDS011;54027;50.786;7.058;2023-08-17T12:25:09;21.58;;;17.20;;
67108;SDS011;54027;50.786;7.058;2023-08-17T12:27:35;24.58;;;17.58;;
67108;SDS011;54027;50.786;7.058;2023-08-17T12:30:00;21.88;;;16.98;;
67108;SDS011;54027;50.786;7.058;2023-08-17T12:32:26;20.77;;;15.80;;
67108;SDS011;54027;50.786;7.058;2023-08-17T12:34:51;26.30;;;16.75;;
67108;SDS011;54027;50.786;7.058;2023-08-17T12:37:20;21.52;;;15.70;;
67108;SDS011;54027;50.786;7.058;2023-08-17T12:39:46;18.90;;;14.88;;
67108;SDS011;54027;50.786;7.058;2023-08-17T12:42:12;24.75;;;17.17;;
67108;SDS011;54027;50.786;7.058;2023-08-17T12:44:38;21.67;;;15.93;;
67108;SDS011;54027;50.786;7.058;2023-08-17T12:47:04;23.38;;;16.85;;
67108;SDS011;54027;50.786;7.058;2023-08-17T12:49:29;19.10;;;15.85;;
67108;SDS011;54027;50.786;7.058;2023-08-17T12:51:55;22.50;;;16.13;;
67108;SDS011;54027;50.786;7.058;2023-08-17T12:54:20;21.23;;;15.85;;
67108;SDS011;54027;50.786;7.058;2023-08-17T12:56:45;24.25;;;16.45;;
67108;SDS011;54027;50.786;7.058;2023-08-17T12:59:11;23.08;;;15.77;;
67108;SDS011;54027;50.786;7.058;2023-08-17T13:01:38;22.58;;;15.90;;
67108;SDS011;54027;50.786;7.058;2023-08-17T13:04:04;23.65;;;16.75;;
67108;SDS011;54027;50.786;7.058;2023-08-17T13:06:30;23.17;;;17.60;;
67108;SDS011;54027;50.786;7.058;2023-08-17T13:08:55;19.58;;;15.60;;
67108;SDS011;54027;50.786;7.058;2023-08-17T13:11:20;20.48;;;16.27;;
67108;SDS011;54027;50.786;7.058;2023-08-17T13:13:46;21.20;;;15.85;;
67108;SDS011;54027;50.786;7.058;2023-08-17T13:16:11;22.52;;;15.98;;
67108;SDS011;54027;50.786;7.058;2023-08-17T13:18:37;23.15;;;16.90;;
67108;SDS011;54027;50.786;7.058;2023-08-17T13:21:02;18.08;;;15.05;;
67108;SDS011;54027;50.786;7.058;2023-08-17T13:23:28;21.65;;;17.25;;
67108;SDS011;54027;50.786;7.058;2023-08-17T13:25:53;20.92;;;16.65;;
67108;SDS011;54027;50.786;7.058;2023-08-17T13:28:19;25.13;;;18.45;;
67108;SDS011;54027;50.786;7.058;2023-08-17T13:30:44;24.30;;;16.95;;
67108;SDS011;54027;50.786;7.058;2023-08-17T13:33:10;20.95;;;16.02;;
67108;SDS011;54027;50.786;7.058;2023-08-17T13:35:36;19.95;;;15.27;;
67108;SDS011;54027;50.786;7.058;2023-08-17T13:38:01;22.52;;;15.52;;
67108;SDS011;54027;50.786;7.058;2023-08-17T13:40:29;19.58;;;14.98;;
67108;SDS011;54027;50.786;7.058;2023-08-17T13:42:55;22.75;;;16.52;;
67108;SDS011;54027;50.786;7.058;2023-08-17T13:45:20;19.65;;;15.50;;
67108;SDS011;54027;50.786;7.058;2023-08-17T13:47:45;20.35;;;15.52;;
67108;SDS011;54027;50.786;7.058;2023-08-17T13:50:11;15.98;;;12.75;;
67108;SDS011;54027;50.786;7.058;2023-08-17T13:52:36;14.68;;;11.10;;
67108;SDS011;54027;50.786;7.058;2023-08-17T13:55:02;17.52;;;13.38;;
67108;SDS011;54027;50.786;7.058;2023-08-17T13:57:28;17.95;;;13.13;;
67108;SDS011;54027;50.786;7.058;2023-08-17T13:59:53;17.13;;;11.65;;
67108;SDS011;54027;50.786;7.058;2023-08-17T14:02:19;17.75;;;12.23;;
67108;SDS011;54027;50.786;7.058;2023-08-17T14:04:45;18.10;;;12.52;;
67108;SDS011;54027;50.786;7.058;2023-08-17T14:07:10;15.50;;;11.40;;
67108;SDS011;54027;50.786;7.058;2023-08-17T14:09:35;12.00;;;10.65;;
67108;SDS011;54027;50.786;7.058;2023-08-17T14:12:01;14.77;;;10.38;;
67108;SDS011;54027;50.786;7.058;2023-08-17T14:14:26;13.95;;;10.93;;
67108;SDS011;54027;50.786;7.058;2023-08-17T14:16:52;13.10;;;11.00;;
67108;SDS011;54027;50.786;7.058;2023-08-17T14:19:17;16.77;;;10.95;;
67108;SDS011;54027;50.786;7.058;2023-08-17T14:21:43;12.50;;;9.88;;
67108;SDS011;54027;50.786;7.058;2023-08-17T14:24:08;15.30;;;9.32;;
67108;SDS011;54027;50.786;7.058;2023-08-17T14:26:34;11.23;;;9.57;;
67108;SDS011;54027;50.786;7.058;2023-08-17T14:29:00;10.80;;;8.85;;
67108;SDS011;54027;50.786;7.058;2023-08-17T14:31:25;13.05;;;8.75;;
67108;SDS011;54027;50.786;7.058;2023-08-17T14:33:50;7.22;;;5.90;;
67108;SDS011;54027;50.786;7.058;2023-08-17T14:36:16;8.27;;;6.60;;
67108;SDS011;54027;50.786;7.058;2023-08-17T14:38:41;7.50;;;5.80;;
67108;SDS011;54027;50.786;7.058;2023-08-17T14:41:07;6.97;;;6.18;;
67108;SDS011;54027;50.786;7.058;2023-08-17T14:43:33;7.85;;;6.07;;